Time;durP1;ratioP1;P1;durP2;ratioP2;P2;SDS_P1;SDS_P2;PMS_P1;PMS_P2;Temp;Humidity;BMP_temperature;BMP_pressure;BME280_temperature;BME280_humidity;BME280_pressure;Samples;Min_cycle;Max_cycle;Signal;HPM_P1;HPM_P2
2022/05/07 00:02:26;;;;;;;1.70;1.60;;;;;;;8.74;83.91;99960.09;8414813;28;20079;-70
2022/05/07 00:06:28;;;;;;;2.40;1.65;;;;;;;8.69;84.18;99966.94;8411480;28;20044;-70
2022/05/07 00:10:30;;;;;;;4.22;1.50;;;;;;;8.65;83.86;99964.31;8415847;28;20451;-70
2022/05/07 00:14:31;;;;;;;2.67;1.47;;;;;;;8.52;84.22;99962.41;8406014;28;20799;-70
2022/05/07 00:18:33;;;;;;;2.77;1.10;;;;;;;8.42;84.48;99969.16;8394627;28;20043;-70
2022/05/07 00:22:34;;;;;;;2.03;1.60;;;;;;;8.35;84.61;99960.47;8422214;28;20793;-70
2022/05/07 00:26:36;;;;;;;2.77;1.20;;;;;;;8.35;84.85;99962.19;8416538;28;20087;-70
2022/05/07 00:30:37;;;;;;;1.55;1.23;;;;;;;8.39;84.66;99956.19;8414605;28;20040;-70
2022/05/07 00:34:39;;;;;;;2.90;1.27;;;;;;;8.39;84.79;99956.19;8410986;28;20800;-70
2022/05/07 00:38:40;;;;;;;2.67;1.38;;;;;;;8.31;85.04;99956.06;8409328;28;20056;-70
2022/05/07 00:42:42;;;;;;;1.88;1.40;;;;;;;8.24;84.66;99953.34;8401396;28;20696;-70
2022/05/07 00:46:44;;;;;;;1.27;1.13;;;;;;;8.15;85.13;99943.78;8413526;28;20048;-70
2022/05/07 00:55:06;;;;;;;2.28;1.30;;;;;;;7.95;85.64;99951.25;8398679;28;20039;-70
2022/05/07 00:59:08;;;;;;;1.52;1.42;;;;;;;7.98;85.94;99943.53;8414022;28;20571;-70
2022/05/07 01:03:11;;;;;;;2.05;1.83;;;;;;;7.99;85.56;99945.25;8414986;28;20067;-70
2022/05/07 01:07:12;;;;;;;2.20;1.52;;;;;;;7.97;85.45;99939.19;8419284;28;20075;-70
2022/05/07 01:11:15;;;;;;;2.90;1.42;;;;;;;7.90;85.69;99945.13;8413555;28;20136;-70
2022/05/07 01:15:17;;;;;;;1.17;1.08;;;;;;;7.84;86.02;99943.31;8410308;28;20048;-70
2022/05/07 01:19:19;;;;;;;2.10;1.30;;;;;;;7.83;86.58;99940.69;8408441;28;20419;-70
2022/05/07 01:23:20;;;;;;;3.47;1.40;;;;;;;7.84;86.37;99943.31;8411530;28;20490;-70
2022/05/07 01:27:22;;;;;;;2.03;0.90;;;;;;;7.78;86.17;99937.19;8411143;28;20044;-70
2022/05/07 01:31:27;;;;;;;2.88;1.15;;;;;;;7.75;86.45;99938.00;8394744;28;20062;-70
2022/05/07 01:35:29;;;;;;;2.42;1.02;;;;;;;7.74;85.85;99940.56;8409525;28;20055;-70
2022/05/07 01:39:31;;;;;;;1.20;0.90;;;;;;;7.75;85.77;99935.44;8397311;28;20040;-70
2022/05/07 01:43:32;;;;;;;1.45;0.93;;;;;;;7.67;85.62;99931.84;8397856;28;20043;-70
2022/05/07 01:51:58;;;;;;;1.17;1.13;;;;;;;7.46;86.03;99928.91;8408619;28;20048;-70
2022/05/07 01:55:59;;;;;;;1.30;1.10;;;;;;;7.46;85.86;99927.19;8408590;28;20050;-70
2022/05/07 02:00:00;;;;;;;3.20;1.00;;;;;;;7.44;85.96;99928.88;8400606;28;20040;-70
2022/05/07 02:04:03;;;;;;;0.82;0.82;;;;;;;7.41;86.01;99928.84;8397874;28;20070;-70
2022/05/07 02:08:05;;;;;;;1.17;0.90;;;;;;;7.32;85.88;99936.41;8414155;28;20068;-70
2022/05/07 02:12:07;;;;;;;1.17;1.08;;;;;;;7.22;86.21;99939.69;8418091;28;20040;-70
2022/05/07 02:16:09;;;;;;;1.20;1.10;;;;;;;7.20;86.52;99939.69;8401552;28;20123;-70
2022/05/07 02:20:10;;;;;;;1.13;1.10;;;;;;;7.21;87.09;99925.91;8412937;28;20596;-70
2022/05/07 02:24:12;;;;;;;1.37;1.10;;;;;;;7.23;87.29;99933.69;8397433;28;20047;-70
2022/05/07 02:28:14;;;;;;;2.47;1.20;;;;;;;7.15;86.51;99930.94;8398990;28;20633;-70
2022/05/07 02:32:17;;;;;;;2.13;1.25;;;;;;;7.07;87.12;99919.63;8399922;28;20063;-70
2022/05/07 02:36:18;;;;;;;3.10;1.55;;;;;;;7.06;87.12;99925.63;8420709;28;20426;-70
2022/05/07 02:40:20;;;;;;;1.65;1.05;;;;;;;7.06;87.17;99924.78;8417518;28;20504;-70
2022/05/07 02:44:21;;;;;;;1.75;1.15;;;;;;;6.98;86.93;99922.03;8383903;28;20190;-70
2022/05/07 02:48:25;;;;;;;1.65;1.40;;;;;;;6.97;87.17;99922.88;8414460;28;20044;-70
2022/05/07 02:52:26;;;;;;;1.27;1.10;;;;;;;6.95;86.93;99925.44;8398736;28;20032;-70
2022/05/07 02:56:27;;;;;;;1.83;1.40;;;;;;;6.93;86.92;99928.81;8399471;28;20050;-70
2022/05/07 03:00:29;;;;;;;2.85;1.00;;;;;;;6.90;87.01;99927.06;8417259;28;20051;-70
2022/05/07 03:04:30;;;;;;;1.40;1.30;;;;;;;6.88;87.23;99925.28;8399945;28;20163;-70
2022/05/07 03:08:32;;;;;;;4.70;1.20;;;;;;;6.88;87.03;99930.47;8407965;28;20044;-70
2022/05/07 03:12:33;;;;;;;2.40;1.10;;;;;;;6.82;87.01;99926.06;8420786;28;20051;-70
2022/05/07 03:16:35;;;;;;;1.65;0.93;;;;;;;6.81;87.17;99926.00;8395637;28;20049;-70
2022/05/07 03:20:37;;;;;;;1.45;1.17;;;;;;;6.77;87.04;99924.22;8418801;28;20500;-69
2022/05/07 03:24:40;;;;;;;1.60;1.20;;;;;;;6.70;86.85;99924.94;8389852;28;20519;-69
2022/05/07 03:28:41;;;;;;;1.50;0.90;;;;;;;6.64;86.70;99923.09;8396385;28;20072;-70
2022/05/07 03:32:43;;;;;;;1.13;1.02;;;;;;;6.60;87.22;99922.16;8392373;28;20055;-70
2022/05/07 03:36:44;;;;;;;1.35;1.25;;;;;;;6.53;87.08;99924.59;8417755;28;20060;-70
2022/05/07 03:40:46;;;;;;;0.95;0.93;;;;;;;6.43;87.14;99925.25;8401533;28;20067;-70
2022/05/07 03:44:47;;;;;;;1.87;1.43;;;;;;;6.46;87.54;99922.72;8421277;28;20053;-71
2022/05/07 03:48:49;;;;;;;2.80;1.10;;;;;;;6.45;87.59;99920.97;8414629;28;20051;-70
2022/05/07 03:57:16;;;;;;;3.43;1.57;;;;;;;6.47;87.86;99916.75;8413191;28;20054;-70
2022/05/07 04:01:18;;;;;;;5.45;1.58;;;;;;;6.45;87.65;99923.56;8414765;28;20058;-70
2022/05/07 04:05:19;;;;;;;1.83;1.40;;;;;;;6.46;87.24;99921.00;8396456;28;20070;-70
2022/05/07 04:09:21;;;;;;;1.30;1.20;;;;;;;6.47;87.35;99925.34;8399910;28;20570;-71
2022/05/07 04:13:22;;;;;;;2.97;1.10;;;;;;;6.44;87.39;99916.66;8394226;28;20064;-70
2022/05/07 04:17:24;;;;;;;1.13;1.00;;;;;;;6.34;87.11;99918.19;8415390;28;20036;-70
2022/05/07 04:21:26;;;;;;;1.95;1.30;;;;;;;6.34;87.69;99918.19;8420065;28;20476;-70
2022/05/07 04:25:27;;;;;;;2.20;1.17;;;;;;;6.41;87.79;99921.75;8412691;28;20036;-70
2022/05/07 04:29:29;;;;;;;5.57;1.10;;;;;;;6.40;87.65;99917.44;8412326;28;20040;-70
2022/05/07 04:33:31;;;;;;;3.50;1.30;;;;;;;6.44;87.75;99920.09;8412973;28;20135;-70
2022/05/07 04:37:32;;;;;;;1.30;1.20;;;;;;;6.47;88.30;99920.19;8417393;28;20361;-70
2022/05/07 04:41:34;;;;;;;1.77;1.40;;;;;;;6.55;88.39;99913.47;8418609;28;20127;-70
2022/05/07 04:45:35;;;;;;;1.80;1.20;;;;;;;6.63;88.52;99929.09;8394890;28;20059;-70
2022/05/07 04:49:36;;;;;;;1.30;1.20;;;;;;;6.72;88.13;99924.13;8394249;28;20048;-70
2022/05/07 04:53:38;;;;;;;2.63;1.60;;;;;;;6.88;88.37;99925.28;8413642;28;20040;-70
2022/05/07 04:57:40;;;;;;;2.42;1.30;;;;;;;6.98;87.92;99922.03;8413028;28;20062;-70
2022/05/07 05:01:42;;;;;;;1.60;1.50;;;;;;;7.13;87.55;99924.03;8413029;28;20044;-70
2022/05/07 05:05:44;;;;;;;1.98;1.20;;;;;;;7.25;87.35;99935.44;8398449;28;20052;-70
2022/05/07 05:09:46;;;;;;;3.90;1.10;;;;;;;7.44;86.86;99923.72;8393875;28;20056;-70
2022/05/07 05:13:47;;;;;;;1.13;1.00;;;;;;;7.65;86.33;99937.81;8413812;28;20044;-70
2022/05/07 05:17:49;;;;;;;3.38;1.33;;;;;;;7.84;85.95;99938.13;8401262;28;20050;-70
2022/05/07 05:21:50;;;;;;;2.78;1.30;;;;;;;8.03;85.37;99939.28;8417179;28;20480;-70
2022/05/07 05:25:52;;;;;;;3.05;1.23;;;;;;;8.14;85.23;99940.31;8395334;28;20062;-71
2022/05/07 05:29:53;;;;;;;3.38;1.38;;;;;;;8.35;84.55;99941.47;8390580;28;20072;-71
2022/05/07 05:33:55;;;;;;;5.90;1.70;;;;;;;9.17;83.28;99936.41;8398180;28;20065;-71
2022/05/07 05:37:56;;;;;;;2.63;1.58;;;;;;;9.92;80.10;99950.88;8411836;28;20072;-71
2022/05/07 05:41:59;;;;;;;2.10;1.48;;;;;;;10.29;78.13;99942.50;8415868;28;20068;-71
2022/05/07 05:46:00;;;;;;;5.38;1.42;;;;;;;10.54;77.63;99945.22;8412108;28;20072;-72
2022/05/07 05:50:03;;;;;;;4.23;2.13;;;;;;;10.74;77.19;99953.94;8397406;28;20044;-71
2022/05/07 05:54:05;;;;;;;3.13;1.80;;;;;;;11.07;76.08;99952.34;8398597;28;20299;-71
2022/05/07 05:58:07;;;;;;;3.45;1.48;;;;;;;11.47;74.74;99946.34;8393180;28;20055;-71
2022/05/07 06:02:08;;;;;;;1.50;1.33;;;;;;;11.86;73.97;99947.25;8412209;28;20123;-71
2022/05/07 06:06:10;;;;;;;6.65;1.73;;;;;;;12.29;72.51;99950.66;8399728;28;20500;-71
2022/05/07 06:10:11;;;;;;;7.32;2.10;;;;;;;12.81;71.27;99947.00;8412207;28;20539;-72
2022/05/07 06:14:14;;;;;;;6.78;2.30;;;;;;;13.16;69.61;99942.47;8405471;28;20067;-71
2022/05/07 06:18:15;;;;;;;2.80;1.83;;;;;;;13.47;68.36;99942.31;8397176;28;20348;-71
2022/05/07 06:22:16;;;;;;;2.38;1.52;;;;;;;13.71;67.63;99951.69;8415714;28;20064;-72
2022/05/07 06:30:39;;;;;;;5.00;2.03;;;;;;;14.39;65.62;99950.16;8415935;28;20078;-72
2022/05/07 06:34:40;;;;;;;2.25;1.50;;;;;;;14.80;65.24;99952.31;8366211;28;20080;-72
2022/05/07 06:38:41;;;;;;;1.87;1.53;;;;;;;15.15;63.79;99953.59;8369942;28;20082;-72
2022/05/07 06:42:44;;;;;;;6.10;2.10;;;;;;;15.55;62.71;99949.50;8372432;28;20040;-72
2022/05/07 06:46:46;;;;;;;6.15;1.98;;;;;;;15.87;61.64;99946.41;8387431;28;20387;-71
2022/05/07 06:50:49;;;;;;;7.43;2.30;;;;;;;16.28;61.05;99948.28;8388395;28;20413;-71
2022/05/07 06:54:51;;;;;;;5.68;2.10;;;;;;;16.52;60.34;99944.34;8368226;28;20143;-72
2022/05/07 06:58:52;;;;;;;4.53;2.75;;;;;;;16.73;60.02;99950.94;8386531;28;20131;-72
2022/05/07 07:02:54;;;;;;;5.75;2.58;;;;;;;16.97;59.41;99949.56;8367807;28;20048;-72
2022/05/07 07:06:55;;;;;;;6.30;3.53;;;;;;;17.14;58.67;99949.19;8380811;28;20071;-71
2022/05/07 07:10:57;;;;;;;9.02;2.97;;;;;;;17.42;58.38;99937.16;8384515;28;20044;-71
2022/05/07 07:15:02;;;;;;;;;;;;;;;17.76;57.52;99946.88;8387324;28;20048;-71
2022/05/07 07:19:04;;;;;;;7.95;3.53;;;;;;;18.06;56.86;99937.34;8367529;28;19928;-71
2022/05/07 07:23:06;;;;;;;7.15;3.78;;;;;;;18.31;57.07;99942.81;8353376;28;20068;-71
2022/05/07 07:27:08;;;;;;;6.00;3.50;;;;;;;18.60;56.22;99942.88;8385497;28;20067;-71
2022/05/07 07:31:10;;;;;;;;;;;;;;;18.68;55.52;99940.09;8372846;28;20072;-71
2022/05/07 07:35:11;;;;;;;7.03;4.20;;;;;;;18.76;54.59;99940.72;8363877;28;19924;-71
2022/05/07 07:39:13;;;;;;;5.68;3.55;;;;;;;18.89;53.94;99939.44;8353274;28;20051;-72
2022/05/07 07:43:14;;;;;;;10.82;4.13;;;;;;;18.98;53.44;99941.78;8375885;28;20114;-72
2022/05/07 07:51:36;;;;;;;8.70;3.90;;;;;;;19.60;53.05;99943.44;8372352;28;20076;-72
2022/05/07 07:55:38;;;;;;;19.85;8.50;;;;;;;19.83;52.97;99948.78;8377201;28;20048;-72
2022/05/07 07:59:40;;;;;;;23.95;13.80;;;;;;;20.08;49.28;99947.97;8371202;28;20098;-72
2022/05/07 08:03:42;;;;;;;25.38;12.85;;;;;;;20.30;48.12;99937.56;8378124;28;20045;-72
2022/05/07 08:12:04;;;;;;;21.63;9.30;;;;;;;20.80;45.05;99939.22;8375950;28;20068;-72
2022/05/07 08:16:09;;;;;;;19.00;11.02;;;;;;;21.18;45.85;99938.66;8365710;28;20048;-71
2022/05/07 08:20:11;;;;;;;10.77;7.75;;;;;;;21.33;44.04;99931.03;8377041;28;20121;-70
2022/05/07 08:24:12;;;;;;;24.13;9.27;;;;;;;21.59;45.44;99931.78;8365012;28;20071;-70
2022/05/07 08:28:15;;;;;;;19.00;8.93;;;;;;;21.54;42.48;99931.09;8367232;28;20064;-71
2022/05/07 08:32:18;;;;;;;17.08;8.82;;;;;;;21.62;42.04;99929.88;8366947;28;20068;-71
2022/05/07 08:36:19;;;;;;;17.77;8.18;;;;;;;21.79;43.83;99931.81;8392253;28;20048;-71
2022/05/07 08:40:22;;;;;;;11.13;5.80;;;;;;;21.99;44.09;99926.53;8380005;28;20075;-71
2022/05/07 08:44:24;;;;;;;13.48;6.60;;;;;;;22.13;43.24;99933.06;8391289;28;20067;-71
2022/05/07 08:48:25;;;;;;;;;;;;;;;22.19;43.17;99930.16;8394069;28;20159;-70
2022/05/07 08:52:28;;;;;;;17.90;5.93;;;;;;;22.23;43.00;99929.09;8391602;28;20514;-70
2022/05/07 08:56:29;;;;;;;14.75;5.13;;;;;;;22.36;41.88;99921.47;8392885;28;20063;-71
2022/05/07 09:00:31;;;;;;;12.27;5.25;;;;;;;22.60;41.20;99925.66;8392332;28;20159;-70
2022/05/07 09:04:32;;;;;;;;;;;;;;;22.92;40.02;99921.59;8391840;28;20075;-70
2022/05/07 09:08:34;;;;;;;10.65;5.75;;;;;;;23.19;38.98;99920.28;8390944;28;20106;-71
2022/05/07 09:12:35;;;;;;;9.50;4.38;;;;;;;23.25;37.73;99919.13;8381673;28;20068;-70
2022/05/07 09:16:40;;;;;;;7.32;4.00;;;;;;;23.49;37.19;99919.72;8385508;28;20143;-71
2022/05/07 09:20:42;;;;;;;5.47;3.10;;;;;;;23.57;35.74;99906.16;8370961;28;20040;-71
2022/05/07 09:24:55;;;;;;;4.13;1.50;;;;;;;23.89;36.56;99909.84;8384028;28;20044;-73
2022/05/07 09:28:58;;;;;;;2.13;1.17;;;;;;;23.98;34.61;99901.41;8381883;28;20131;-72
2022/05/07 09:33:00;;;;;;;4.43;1.70;;;;;;;24.21;34.75;99902.84;8380435;28;20912;-72
2022/05/07 09:37:20;;;;;;;7.78;1.63;;;;;;;24.23;33.48;99901.84;8385305;28;20406;-71
2022/05/07 09:41:22;;;;;;;7.65;1.83;;;;;;;24.47;35.20;99896.22;8384220;28;20712;-71
2022/05/07 09:45:27;;;;;;;6.53;2.22;;;;;;;24.54;32.69;99897.59;8389081;28;20652;-70
2022/05/07 09:49:36;;;;;;;3.22;1.80;;;;;;;24.27;33.94;99895.44;8364826;28;20579;-71
2022/05/07 09:57:59;;;;;;;5.80;2.15;;;;;;;24.47;34.63;99894.41;8381354;28;20040;-70
2022/05/07 10:02:40;;;;;;;3.65;1.67;;;;;;;24.24;34.54;99889.44;8369128;28;20041;-71
2022/05/07 10:06:53;;;;;;;3.57;1.90;;;;;;;23.56;34.24;99892.00;8366918;28;20048;-70
2022/05/07 10:10:56;;;;;;;2.60;1.55;;;;;;;22.94;34.29;99895.88;8366398;28;20538;-70
2022/05/07 10:15:09;;;;;;;3.55;1.20;;;;;;;22.68;35.79;99881.19;8380240;28;20040;-71
2022/05/07 10:19:11;;;;;;;4.45;1.70;;;;;;;22.47;36.54;99887.47;8382482;28;20063;-71
2022/05/07 10:23:13;;;;;;;;;;;;;;;22.40;39.09;99880.72;8385346;28;20766;-70
2022/05/07 10:27:25;;;;;;;2.22;1.40;;;;;;;22.61;39.56;99879.72;8363433;28;19958;-71
2022/05/07 10:31:26;;;;;;;2.83;1.60;;;;;;;23.30;39.51;99877.34;8382074;28;20079;-71
2022/05/07 10:35:53;;;;;;;3.95;2.08;;;;;;;23.83;37.42;99873.84;8373259;28;20137;-71
2022/05/07 10:39:55;;;;;;;4.15;1.98;;;;;;;24.04;35.22;99877.19;8355212;28;20072;-70
2022/05/07 10:43:57;;;;;;;3.58;1.85;;;;;;;24.05;33.45;99861.19;8368858;28;20479;-71
2022/05/07 10:47:59;;;;;;;2.03;1.33;;;;;;;24.15;35.05;99858.94;8352452;28;20123;-70
2022/05/07 10:52:32;;;;;;;4.40;1.52;;;;;;;24.25;33.56;99852.22;8362655;28;20041;-71
2022/05/07 10:56:34;;;;;;;3.65;1.40;;;;;;;24.60;36.48;99857.44;8366685;28;20044;-71
2022/05/07 11:00:36;;;;;;;2.60;1.33;;;;;;;25.28;34.42;99856.25;8368457;28;20052;-72
2022/05/07 11:04:42;;;;;;;1.65;1.05;;;;;;;25.73;34.16;99849.22;8335133;28;20445;-71
2022/05/07 11:08:53;;;;;;;2.67;0.90;;;;;;;26.16;31.63;99847.47;8355896;28;20048;-71
2022/05/07 11:13:23;;;;;;;3.65;0.80;;;;;;;26.06;30.11;99840.19;8359432;28;20077;-71
2022/05/07 11:17:30;;;;;;;3.75;1.30;;;;;;;25.51;31.45;99838.13;8353264;28;20091;-72
2022/05/07 11:21:36;;;;;;;1.73;1.00;;;;;;;25.60;33.41;99829.59;8366656;28;20041;-74
2022/05/07 11:25:40;;;;;;;3.70;1.10;;;;;;;25.86;31.41;99828.94;8349892;28;20048;-71
2022/05/07 11:29:41;;;;;;;2.92;0.70;;;;;;;25.52;30.40;99830.06;8349352;28;20087;-71
2022/05/07 11:33:45;;;;;;;2.35;0.60;;;;;;;24.98;30.42;99826.94;8366483;28;20059;-71
2022/05/07 11:37:46;;;;;;;5.40;0.60;;;;;;;24.72;32.54;99830.19;8402723;28;20054;-71
2022/05/07 11:41:55;;;;;;;4.18;0.68;;;;;;;24.79;32.84;99822.75;8403591;28;20075;-71
2022/05/07 11:46:07;;;;;;;2.78;0.80;;;;;;;25.29;29.98;99819.88;8406166;28;20143;-72
2022/05/07 11:50:18;;;;;;;4.55;0.80;;;;;;;25.33;30.58;99821.44;8399364;28;20047;-71
2022/05/07 11:54:19;;;;;;;2.97;1.10;;;;;;;25.26;31.69;99817.41;8403193;28;20475;-71
2022/05/07 11:58:22;;;;;;;1.58;0.57;;;;;;;25.73;31.52;99812.00;8393791;28;20074;-71
2022/05/07 12:02:24;;;;;;;1.00;0.65;;;;;;;25.87;28.83;99814.69;8389133;28;20046;-71
2022/05/07 12:06:28;;;;;;;1.98;0.70;;;;;;;26.18;29.00;99804.78;8399768;28;20076;-71
2022/05/07 12:10:29;;;;;;;1.65;0.70;;;;;;;26.12;27.33;99798.06;8392365;28;20075;-71
2022/05/07 12:14:31;;;;;;;0.93;0.63;;;;;;;26.04;31.20;99795.03;8403376;28;20071;-71
2022/05/07 12:18:32;;;;;;;;;;;;;;;25.84;30.01;99795.38;8395586;28;20079;-71
2022/05/07 12:31:14;;;;;;;0.65;0.45;;;;;;;24.65;31.05;99781.88;8393141;28;20054;-71
2022/05/07 12:35:16;;;;;;;1.85;0.65;;;;;;;24.35;31.88;99783.56;8376466;28;20074;-72
2022/05/07 12:39:17;;;;;;;5.30;0.57;;;;;;;24.30;33.16;99781.19;8381268;28;20127;-73
2022/05/07 12:43:19;;;;;;;4.80;0.70;;;;;;;24.19;32.07;99780.00;8382159;28;20055;-72
2022/05/07 12:47:20;;;;;;;2.33;0.57;;;;;;;24.37;32.70;99777.22;8364667;28;20056;-72
2022/05/07 12:51:23;;;;;;;3.20;0.52;;;;;;;24.80;30.88;99776.66;8378908;28;20698;-72
2022/05/07 12:55:24;;;;;;;1.00;0.47;;;;;;;24.87;30.25;99772.69;8380973;28;20071;-72
2022/05/07 12:59:26;;;;;;;1.17;0.47;;;;;;;25.02;30.64;99763.88;8378240;28;20067;-72
2022/05/07 13:03:27;;;;;;;1.55;0.60;;;;;;;25.32;30.28;99766.56;8383527;28;20040;-72
2022/05/07 13:07:29;;;;;;;4.28;0.55;;;;;;;25.59;31.15;99764.03;8387785;28;20134;-72
2022/05/07 13:11:30;;;;;;;2.10;0.70;;;;;;;25.85;29.50;99760.72;8384983;28;20072;-72
2022/05/07 13:15:32;;;;;;;;;;;;;;;26.01;28.36;99749.94;8384041;28;20032;-72
2022/05/07 13:19:33;;;;;;;1.75;0.60;;;;;;;26.11;28.38;99748.44;8389246;28;19923;-72
2022/05/07 13:23:35;;;;;;;1.60;0.50;;;;;;;25.55;29.08;99743.91;8380297;28;20075;-72
2022/05/07 13:27:36;;;;;;;0.90;0.40;;;;;;;25.03;28.63;99738.16;8381486;28;20139;-72
2022/05/07 13:31:38;;;;;;;3.78;0.45;;;;;;;25.04;30.49;99739.88;8376631;28;20119;-72
2022/05/07 13:35:39;;;;;;;;;;;;;;;25.20;30.21;99730.06;8402312;28;20349;-71
2022/05/07 13:39:41;;;;;;;0.60;0.40;;;;;;;25.48;30.40;99729.25;8411996;28;19942;-72
2022/05/07 13:43:43;;;;;;;1.08;0.50;;;;;;;25.77;28.75;99728.38;8397052;28;20123;-71
2022/05/07 13:47:44;;;;;;;1.38;0.50;;;;;;;26.07;30.39;99728.28;8425018;28;20727;-71
2022/05/07 13:51:46;;;;;;;1.50;0.47;;;;;;;26.35;28.68;99713.25;8408907;28;20063;-72
2022/05/07 13:55:47;;;;;;;1.67;0.50;;;;;;;26.49;29.92;99714.06;8404857;28;20047;-71
2022/05/07 13:59:49;;;;;;;3.88;0.60;;;;;;;26.44;28.68;99708.19;8407381;28;20041;-72
2022/05/07 14:03:50;;;;;;;2.05;0.45;;;;;;;26.18;28.81;99706.28;8400230;28;20040;-72
2022/05/07 14:07:52;;;;;;;3.42;0.80;;;;;;;25.82;29.52;99705.00;8406180;28;20083;-71
2022/05/07 14:11:53;;;;;;;1.67;0.50;;;;;;;25.26;30.28;99703.09;8401089;28;20054;-71
2022/05/07 14:15:55;;;;;;;9.55;0.77;;;;;;;24.82;30.46;99701.25;8403231;28;20076;-72
2022/05/07 14:19:59;;;;;;;2.58;0.50;;;;;;;25.09;30.81;99689.97;8405478;28;20043;-72
2022/05/07 14:24:02;;;;;;;2.55;0.50;;;;;;;25.35;30.64;99683.97;8392859;28;20121;-73
2022/05/07 14:28:04;;;;;;;2.70;0.50;;;;;;;25.42;30.19;99685.28;8411324;28;20455;-72
2022/05/07 14:32:06;;;;;;;1.00;0.63;;;;;;;25.39;28.22;99680.16;8380783;28;20074;-73
2022/05/07 14:36:07;;;;;;;1.60;0.70;;;;;;;25.47;30.29;99685.84;8374891;28;20055;-73
2022/05/07 14:44:29;;;;;;;5.82;0.50;;;;;;;25.81;29.31;99675.81;8343943;28;20047;-73
2022/05/07 14:48:31;;;;;;;6.00;1.05;;;;;;;25.87;29.25;99678.97;8368691;28;20637;-72
2022/05/07 14:52:33;;;;;;;2.95;0.40;;;;;;;26.06;29.25;99678.66;8365165;28;20464;-71
2022/05/07 14:56:37;;;;;;;;;;;;;;;26.32;29.49;99673.47;8367299;28;20059;-72
2022/05/07 15:00:38;;;;;;;1.55;0.40;;;;;;;26.31;27.64;99677.09;8369963;28;19934;-71
2022/05/07 15:04:40;;;;;;;1.42;0.43;;;;;;;26.34;26.86;99668.91;8363532;28;20063;-72
2022/05/07 15:13:02;;;;;;;1.45;0.40;;;;;;;26.67;28.72;99658.72;8362280;28;20152;-72
2022/05/07 15:17:09;;;;;;;0.98;0.50;;;;;;;26.89;28.64;99662.63;8351577;28;20098;-72
2022/05/07 15:21:11;;;;;;;1.45;0.70;;;;;;;26.87;27.93;99656.53;8349073;28;20138;-71
2022/05/07 15:25:15;;;;;;;3.25;0.40;;;;;;;26.91;26.61;99661.56;8362035;28;20480;-71
2022/05/07 15:29:17;;;;;;;0.80;0.40;;;;;;;26.89;27.54;99654.63;8368741;28;20041;-71
2022/05/07 15:37:39;;;;;;;2.17;0.30;;;;;;;25.83;27.32;99652.63;8404602;28;20068;-72
2022/05/07 15:41:40;;;;;;;1.92;0.38;;;;;;;25.17;28.09;99654.03;8403076;28;20121;-71
2022/05/07 15:45:42;;;;;;;2.85;0.40;;;;;;;24.68;29.38;99662.19;8407875;28;20054;-72
2022/05/07 15:49:48;;;;;;;2.78;0.30;;;;;;;24.28;30.87;99662.75;8402131;28;20059;-71
2022/05/07 15:53:49;;;;;;;2.03;0.60;;;;;;;23.97;32.62;99652.97;8414466;28;20068;-71
2022/05/07 15:57:51;;;;;;;3.13;0.40;;;;;;;23.81;31.00;99651.16;8393775;28;20044;-71
2022/05/07 16:01:52;;;;;;;2.33;0.52;;;;;;;23.60;31.15;99644.38;8390194;28;20054;-71
2022/05/07 16:05:54;;;;;;;7.32;0.60;;;;;;;23.24;34.46;99643.63;8409047;28;20064;-71
2022/05/07 16:09:56;;;;;;;13.93;1.05;;;;;;;23.05;36.70;99649.03;8406706;28;20075;-71
2022/05/07 16:13:58;;;;;;;3.03;0.50;;;;;;;23.41;37.68;99655.06;8407425;28;20050;-71
2022/05/07 16:17:59;;;;;;;2.28;0.35;;;;;;;23.91;34.09;99645.38;8403111;28;20068;-72
2022/05/07 16:22:01;;;;;;;;;;;;;;;24.18;31.53;99640.31;8407367;28;20078;-71
2022/05/07 16:26:04;;;;;;;9.17;0.97;;;;;;;24.09;32.73;99639.88;8397214;28;20316;-73
2022/05/07 16:30:08;;;;;;;4.63;0.30;;;;;;;23.86;31.94;99647.38;8389712;28;20081;-71
2022/05/07 16:34:09;;;;;;;2.03;0.85;;;;;;;23.49;33.42;99647.53;8395236;28;20141;-71
2022/05/07 16:38:12;;;;;;;6.38;0.80;;;;;;;23.16;34.97;99638.72;8356286;28;20048;-72
2022/05/07 16:42:13;;;;;;;5.03;0.90;;;;;;;22.77;36.04;99642.44;8371846;28;20404;-71
2022/05/07 16:46:16;;;;;;;7.15;0.90;;;;;;;22.50;36.78;99657.06;8371874;28;20064;-72
2022/05/07 16:50:18;;;;;;;2.40;1.00;;;;;;;22.22;37.23;99657.53;8370083;28;20127;-72
2022/05/07 16:54:19;;;;;;;4.50;1.00;;;;;;;21.97;39.89;99666.59;8351834;28;20473;-72
2022/05/07 16:58:21;;;;;;;3.97;1.15;;;;;;;21.68;41.70;99665.28;8369130;28;20677;-73
2022/05/07 17:02:22;;;;;;;5.10;0.80;;;;;;;21.39;42.06;99668.41;8364073;28;20069;-72
2022/05/07 17:06:27;;;;;;;2.20;1.20;;;;;;;21.18;42.49;99671.91;8366626;28;20075;-72
2022/05/07 17:10:29;;;;;;;1.42;1.00;;;;;;;20.97;43.51;99664.00;8330240;28;20492;-72
2022/05/07 17:14:31;;;;;;;2.17;1.20;;;;;;;20.87;42.79;99678.53;8366903;28;20076;-72
2022/05/07 17:18:32;;;;;;;1.30;0.93;;;;;;;20.70;42.89;99675.72;8372118;28;20048;-71
2022/05/07 17:22:34;;;;;;;1.45;0.80;;;;;;;20.48;43.87;99689.78;8354603;28;20077;-72
2022/05/07 17:26:36;;;;;;;1.77;0.95;;;;;;;20.26;44.49;99688.88;8367222;28;20069;-71
2022/05/07 17:30:38;;;;;;;1.83;0.80;;;;;;;20.06;45.21;99694.91;8369177;28;20532;-71
2022/05/07 17:34:40;;;;;;;3.15;1.02;;;;;;;19.83;45.90;99703.69;8373943;28;20080;-71
2022/05/07 17:38:42;;;;;;;1.88;0.90;;;;;;;19.64;46.49;99704.44;8385597;28;20365;-72
2022/05/07 17:42:43;;;;;;;5.15;0.93;;;;;;;19.45;47.77;99712.09;8388187;28;20054;-71
2022/05/07 17:46:45;;;;;;;1.77;1.10;;;;;;;19.27;48.97;99718.88;8381164;28;20707;-71
2022/05/07 17:50:46;;;;;;;1.88;1.08;;;;;;;19.08;49.70;99716.00;8385139;28;20143;-71
2022/05/07 17:54:48;;;;;;;3.38;1.13;;;;;;;18.90;50.69;99712.22;8389332;28;20045;-71
2022/05/07 17:58:53;;;;;;;1.58;1.00;;;;;;;18.76;51.75;99717.06;8383221;28;20055;-71
2022/05/07 18:02:55;;;;;;;3.00;1.38;;;;;;;18.53;52.56;99722.19;8362367;28;20040;-71
2022/05/07 18:06:57;;;;;;;4.47;1.55;;;;;;;18.42;52.39;99725.13;8382967;28;20063;-72
2022/05/07 18:11:00;;;;;;;3.72;1.73;;;;;;;18.29;53.85;99726.41;8364484;28;20079;-72
2022/05/07 18:15:02;;;;;;;5.07;1.83;;;;;;;18.09;55.06;99727.03;8380697;28;20039;-72
2022/05/07 18:19:07;;;;;;;1.98;1.77;;;;;;;17.90;55.23;99720.59;8383076;28;20127;-71
2022/05/07 18:23:09;;;;;;;3.13;1.63;;;;;;;17.76;56.13;99729.72;8382863;28;20040;-72
2022/05/07 18:27:11;;;;;;;2.42;1.40;;;;;;;17.63;57.04;99735.34;8382571;28;20048;-72
2022/05/07 18:31:12;;;;;;;2.63;1.20;;;;;;;17.44;58.25;99737.59;8365595;28;20067;-72
2022/05/07 18:35:14;;;;;;;5.73;1.30;;;;;;;17.28;58.33;99733.66;8386191;28;20736;-72
2022/05/07 18:43:35;;;;;;;4.28;1.65;;;;;;;16.89;60.17;99753.00;8378072;28;20304;-72
2022/05/07 18:47:37;;;;;;;1.53;1.30;;;;;;;16.70;62.05;99754.34;8372923;28;20052;-72
2022/05/07 18:51:38;;;;;;;5.25;2.17;;;;;;;16.47;62.78;99765.28;8373417;28;20309;-72
2022/05/07 19:00:00;;;;;;;2.03;1.48;;;;;;;16.17;64.69;99761.59;8373556;28;20086;-72
2022/05/07 19:04:01;;;;;;;3.63;1.30;;;;;;;15.88;66.09;99764.81;8352887;28;20123;-72
2022/05/07 19:08:03;;;;;;;1.85;1.75;;;;;;;15.63;66.64;99764.44;8379403;28;20132;-72
2022/05/07 19:12:05;;;;;;;1.92;1.48;;;;;;;15.50;66.92;99765.50;8364031;28;20055;-71
2022/05/07 19:16:08;;;;;;;4.05;1.30;;;;;;;15.39;67.45;99773.53;8372776;28;20054;-70
2022/05/07 19:20:10;;;;;;;;;;;;;;;15.36;66.42;99777.97;8381753;28;20098;-71
2022/05/07 19:24:11;;;;;;;2.97;1.17;;;;;;;15.23;66.69;99782.53;8377932;28;19927;-72
2022/05/07 19:28:20;;;;;;;1.80;1.30;;;;;;;15.25;67.51;99790.38;8366478;28;20123;-70
2022/05/07 19:32:21;;;;;;;1.70;1.60;;;;;;;15.16;67.46;99780.94;8355039;28;20131;-70
2022/05/07 19:36:23;;;;;;;1.57;1.17;;;;;;;15.17;66.73;99780.03;8408374;28;20047;-71
2022/05/07 19:40:46;;;;;;;3.80;1.20;;;;;;;15.17;66.09;99780.03;8401259;28;20093;-71
2022/05/07 19:44:48;;;;;;;1.55;1.25;;;;;;;15.18;66.03;99783.53;8393584;28;20045;-71
2022/05/07 19:48:50;;;;;;;1.40;1.30;;;;;;;15.12;66.48;99776.66;8410371;28;20449;-71
2022/05/07 19:52:53;;;;;;;1.63;1.50;;;;;;;14.96;68.10;99789.13;8414643;28;20059;-71
2022/05/07 19:56:56;;;;;;;2.90;1.10;;;;;;;14.79;68.98;99796.34;8407253;28;20307;-71
2022/05/07 20:00:57;;;;;;;2.42;1.05;;;;;;;14.71;68.56;99792.97;8401042;28;20064;-70
2022/05/07 20:04:59;;;;;;;1.98;1.20;;;;;;;14.59;69.22;99798.41;8394385;28;20036;-72
2022/05/07 20:09:00;;;;;;;1.10;1.00;;;;;;;14.48;70.15;99811.59;8387361;28;20067;-71